createdAt,value
2018-09-21T00:00:05.344Z,54.65
2018-09-21T00:02:33.025Z,54.59
2018-09-21T00:05:01.994Z,54.32
2018-09-21T00:07:29.564Z,54.44
2018-09-21T00:09:57.128Z,54.20
2018-09-21T00:12:24.773Z,54.49
2018-09-21T00:14:52.612Z,54.65
2018-09-21T00:17:20.218Z,54.50
2018-09-21T00:19:47.787Z,54.52
2018-09-21T00:22:15.830Z,54.98
2018-09-21T00:24:43.638Z,54.90
2018-09-21T00:27:11.281Z,55.04
2018-09-21T00:29:38.873Z,55.12
2018-09-21T00:32:06.928Z,54.88
2018-09-21T00:34:34.576Z,54.82
2018-09-21T00:37:02.137Z,55.27
2018-09-21T00:39:29.910Z,55.16
2018-09-21T00:41:57.471Z,55.54
2018-09-21T00:44:25.012Z,55.33
2018-09-21T00:46:52.608Z,55.35
2018-09-21T00:49:20.142Z,55.67
2018-09-21T00:51:47.783Z,55.33
2018-09-21T00:54:15.302Z,55.39
2018-09-21T00:56:42.983Z,55.55
2018-09-21T00:59:10.545Z,56.35
2018-09-21T01:01:38.224Z,56.11
2018-09-21T01:04:05.971Z,55.84
2018-09-21T01:06:33.704Z,56.09
2018-09-21T01:09:01.305Z,56.13
2018-09-21T01:11:28.977Z,55.68
2018-09-21T01:13:56.541Z,56.01
2018-09-21T01:16:24.150Z,55.91
2018-09-21T01:18:51.722Z,56.26
2018-09-21T01:21:19.293Z,56.88
2018-09-21T01:23:46.836Z,56.62
2018-09-21T01:26:14.424Z,56.93
2018-09-21T01:28:41.950Z,56.90
2018-09-21T01:31:09.577Z,56.83
2018-09-21T01:33:37.626Z,56.75
2018-09-21T01:36:05.409Z,57.03
2018-09-21T01:38:32.984Z,57.13
2018-09-21T01:41:00.558Z,56.87
2018-09-21T01:43:28.082Z,56.94
2018-09-21T01:45:55.670Z,56.89
2018-09-21T01:48:23.212Z,56.90
2018-09-21T01:50:50.734Z,56.78
2018-09-21T01:53:18.321Z,57.16
2018-09-21T01:55:45.856Z,57.00
2018-09-21T01:58:13.387Z,57.70
2018-09-21T02:00:40.982Z,57.24
2018-09-21T02:03:08.503Z,57.38
2018-09-21T02:05:36.068Z,57.39
2018-09-21T02:08:03.607Z,57.20
2018-09-21T02:10:31.381Z,57.40
2018-09-21T02:12:58.918Z,57.18
2018-09-21T02:15:26.479Z,57.61
2018-09-21T02:17:54.040Z,57.77
2018-09-21T02:20:21.591Z,57.08
2018-09-21T02:22:49.167Z,57.29
2018-09-21T02:25:16.716Z,57.51
2018-09-21T02:27:44.277Z,57.82
2018-09-21T02:30:11.824Z,57.62
2018-09-21T02:32:39.374Z,57.48
2018-09-21T02:35:06.952Z,57.19
2018-09-21T02:37:34.518Z,57.36
2018-09-21T02:40:02.060Z,57.45
2018-09-21T02:42:29.628Z,57.25
2018-09-21T02:44:57.165Z,57.16
2018-09-21T02:47:24.711Z,57.35
2018-09-21T02:49:52.214Z,57.38
2018-09-21T02:52:19.792Z,57.37
2018-09-21T02:54:47.365Z,57.40
2018-09-21T02:57:14.902Z,56.98
2018-09-21T02:59:42.489Z,57.01
2018-09-21T03:02:10.025Z,56.92
2018-09-21T03:04:37.559Z,56.62
2018-09-21T03:07:05.139Z,56.61
2018-09-21T03:09:32.701Z,56.44
2018-09-21T03:12:00.226Z,56.31
2018-09-21T03:14:27.804Z,56.45
2018-09-21T03:16:55.730Z,56.39
2018-09-21T03:19:23.312Z,56.25
2018-09-21T03:21:51.080Z,56.04
2018-09-21T03:24:18.592Z,55.62
2018-09-21T03:26:46.311Z,55.64
2018-09-21T03:29:13.844Z,55.80
2018-09-21T03:31:41.508Z,55.53
2018-09-21T03:34:09.014Z,55.38
2018-09-21T03:36:36.516Z,55.46
2018-09-21T03:39:05.143Z,55.32
2018-09-21T03:41:32.664Z,55.72
2018-09-21T03:44:00.215Z,55.48
2018-09-21T03:46:27.771Z,55.21
2018-09-21T03:48:55.344Z,55.05
2018-09-21T03:51:22.920Z,55.94
2018-09-21T03:53:50.454Z,55.65
2018-09-21T03:56:18.036Z,55.02
2018-09-21T03:58:45.612Z,55.50
2018-09-21T04:01:13.204Z,55.38
2018-09-21T04:03:44.381Z,55.38
2018-09-21T04:06:11.919Z,55.35
2018-09-21T04:08:39.426Z,55.05
2018-09-21T04:11:06.983Z,55.05
2018-09-21T04:13:34.546Z,55.67
2018-09-21T04:16:02.080Z,55.56
2018-09-21T04:18:29.635Z,55.60
2018-09-21T04:20:57.201Z,55.76
2018-09-21T04:23:24.731Z,55.72
2018-09-21T04:25:52.268Z,56.33
2018-09-21T04:28:19.855Z,56.27
2018-09-21T04:30:47.378Z,56.50
2018-09-21T04:33:15.030Z,56.39
2018-09-21T04:35:42.610Z,56.24
2018-09-21T04:38:10.142Z,56.39
2018-09-21T04:40:37.691Z,56.73
2018-09-21T04:43:05.199Z,56.54
2018-09-21T04:45:32.798Z,56.47
2018-09-21T04:48:00.351Z,56.57
2018-09-21T04:50:27.869Z,56.75
2018-09-21T04:52:55.429Z,56.54
2018-09-21T04:55:22.995Z,56.89
2018-09-21T04:57:50.516Z,56.98
2018-09-21T05:00:18.045Z,56.92
2018-09-21T05:02:45.593Z,56.63
2018-09-21T05:05:13.145Z,56.67
2018-09-21T05:07:40.710Z,57.33
2018-09-21T05:10:08.444Z,57.01
2018-09-21T05:12:36.019Z,57.04
2018-09-21T05:15:03.594Z,57.30
2018-09-21T05:17:31.129Z,57.49
2018-09-21T05:19:58.668Z,57.01
2018-09-21T05:22:26.239Z,57.81
2018-09-21T05:24:53.822Z,57.84
2018-09-21T05:27:21.397Z,57.64
2018-09-21T05:29:49.026Z,57.72
2018-09-21T05:32:16.544Z,57.88
2018-09-21T05:34:44.201Z,57.69
2018-09-21T05:37:11.642Z,58.18
2018-09-21T05:39:39.241Z,58.05
2018-09-21T05:42:06.808Z,58.24
2018-09-21T05:44:34.380Z,58.39
2018-09-21T05:47:01.954Z,58.65
2018-09-21T05:49:29.525Z,58.43
2018-09-21T05:51:57.077Z,58.80
2018-09-21T05:54:24.623Z,58.55
2018-09-21T05:56:52.214Z,58.88
2018-09-21T05:59:19.826Z,59.13
2018-09-21T06:01:47.390Z,59.43
2018-09-21T06:04:14.965Z,59.17
2018-09-21T06:06:42.550Z,59.32
2018-09-21T06:09:10.554Z,59.81
2018-09-21T06:11:38.136Z,59.97
2018-09-21T06:14:06.125Z,59.63
2018-09-21T06:16:34.404Z,60.09
2018-09-21T06:19:03.184Z,59.71
2018-09-21T06:21:33.222Z,60.00
2018-09-21T06:24:00.795Z,60.04
2018-09-21T06:26:28.356Z,60.06
2018-09-21T06:28:56.088Z,60.45
2018-09-21T06:31:23.596Z,60.22
2018-09-21T06:33:51.157Z,60.07
2018-09-21T06:36:18.697Z,59.76
2018-09-21T06:38:46.259Z,60.06
2018-09-21T06:41:13.796Z,60.23
2018-09-21T06:43:41.318Z,60.09
2018-09-21T06:46:08.882Z,60.05
2018-09-21T06:48:36.437Z,60.10
2018-09-21T06:51:04.149Z,60.15
2018-09-21T06:53:31.724Z,59.55
2018-09-21T06:55:59.595Z,59.71
2018-09-21T06:58:27.992Z,59.84
2018-09-21T07:00:55.622Z,59.82
2018-09-21T07:03:24.246Z,59.69
2018-09-21T07:05:51.952Z,59.75
2018-09-21T07:08:19.749Z,59.54
2018-09-21T07:10:47.270Z,59.29
2018-09-21T07:13:14.950Z,59.54
2018-09-21T07:15:42.760Z,59.28
2018-09-21T07:18:10.497Z,59.51
2018-09-21T07:20:37.999Z,59.46
2018-09-21T07:23:05.971Z,59.25
2018-09-21T07:25:33.517Z,59.19
2018-09-21T07:28:01.267Z,58.99
2018-09-21T07:30:28.811Z,58.53
2018-09-21T07:32:56.389Z,58.57
2018-09-21T07:35:24.023Z,58.42
2018-09-21T07:37:51.608Z,58.17
2018-09-21T07:40:19.324Z,57.66
2018-09-21T07:42:47.018Z,57.91
2018-09-21T07:45:14.685Z,57.39
2018-09-21T07:47:42.480Z,57.20
2018-09-21T07:50:10.195Z,57.28
2018-09-21T07:52:37.764Z,57.42
2018-09-21T07:55:05.325Z,57.51
2018-09-21T07:57:32.933Z,57.54
2018-09-21T08:00:00.886Z,57.43
2018-09-21T08:02:28.964Z,57.87
2018-09-21T08:04:56.504Z,59.36
2018-09-21T08:07:24.281Z,59.77
2018-09-21T08:09:53.100Z,60.54
2018-09-21T08:12:20.823Z,60.47
2018-09-21T08:14:48.429Z,60.24
2018-09-21T08:17:16.228Z,59.52
2018-09-21T08:19:45.131Z,59.15
2018-09-21T08:22:12.923Z,59.07
2018-09-21T08:24:40.652Z,59.26
2018-09-21T08:27:08.561Z,58.27
2018-09-21T08:29:36.420Z,58.69
2018-09-21T08:32:04.018Z,58.83
2018-09-21T08:34:31.662Z,58.28
2018-09-21T08:36:59.397Z,58.74
2018-09-21T08:39:26.960Z,60.55
2018-09-21T08:41:54.505Z,61.62
2018-09-21T08:44:23.229Z,61.96
2018-09-21T08:46:50.845Z,63.42
2018-09-21T08:49:18.408Z,66.37
2018-09-21T08:51:45.967Z,68.17
2018-09-21T08:54:13.746Z,72.34
2018-09-21T08:56:41.425Z,76.34
2018-09-21T08:59:08.969Z,79.40
2018-09-21T09:01:36.633Z,82.57
2018-09-21T09:04:04.216Z,82.97
2018-09-21T09:06:32.122Z,83.76
2018-09-21T09:08:59.915Z,83.57
2018-09-21T09:11:27.719Z,86.41
2018-09-21T09:13:55.590Z,82.18
2018-09-21T09:16:23.278Z,80.20
2018-09-21T09:18:51.219Z,79.08
2018-09-21T09:21:19.038Z,76.69
2018-09-21T09:23:46.638Z,77.86
2018-09-21T09:26:14.443Z,78.37
2018-09-21T09:28:42.133Z,79.42
2018-09-21T09:31:09.841Z,79.31
2018-09-21T09:33:37.415Z,80.06
2018-09-21T09:36:05.216Z,79.35
2018-09-21T09:38:33.012Z,81.24
2018-09-21T09:41:00.756Z,81.87
2018-09-21T09:43:28.474Z,82.07
2018-09-21T09:45:56.807Z,81.27
2018-09-21T09:48:24.836Z,81.68
2018-09-21T09:50:53.079Z,81.37
2018-09-21T09:53:20.821Z,80.97
2018-09-21T09:55:48.895Z,80.90
2018-09-21T09:58:16.808Z,80.05
2018-09-21T10:00:45.258Z,81.53
2018-09-21T10:03:13.102Z,81.26
2018-09-21T10:05:40.887Z,80.54
2018-09-21T10:08:08.783Z,80.99
2018-09-21T10:10:36.506Z,81.01
2018-09-21T10:13:04.318Z,82.14
2018-09-21T10:15:32.119Z,82.37
2018-09-21T10:17:59.866Z,81.27
2018-09-21T10:20:28.020Z,81.84
2018-09-21T10:22:55.937Z,82.10
2018-09-21T10:25:25.408Z,82.24
2018-09-21T10:27:53.844Z,81.87
2018-09-21T10:30:21.363Z,81.71
2018-09-21T10:32:48.987Z,82.30
2018-09-21T10:35:16.611Z,82.13
2018-09-21T10:37:44.369Z,81.07
2018-09-21T10:40:12.126Z,80.81
2018-09-21T10:42:39.867Z,81.69
2018-09-21T10:45:07.723Z,81.54
2018-09-21T10:47:35.665Z,81.25
2018-09-21T10:50:03.472Z,80.57
2018-09-21T10:52:31.096Z,81.41
2018-09-21T10:54:59.107Z,81.14
2018-09-21T10:57:26.964Z,81.48
2018-09-21T10:59:54.707Z,82.10
2018-09-21T11:02:22.550Z,79.84
2018-09-21T11:04:50.088Z,80.77
2018-09-21T11:07:17.789Z,80.99
2018-09-21T11:09:45.319Z,82.04
2018-09-21T11:12:12.859Z,82.27
2018-09-21T11:14:40.440Z,81.57
2018-09-21T11:17:08.017Z,81.50
2018-09-21T11:19:35.592Z,81.56
2018-09-21T11:22:03.126Z,82.10
2018-09-21T11:24:30.810Z,83.04
2018-09-21T11:26:58.505Z,82.54
2018-09-21T11:29:26.075Z,81.29
2018-09-21T11:31:53.773Z,82.26
2018-09-21T11:34:21.377Z,81.63
2018-09-21T11:36:48.972Z,82.20
2018-09-21T11:39:16.750Z,83.02
2018-09-21T11:41:44.814Z,83.30
2018-09-21T11:44:12.687Z,82.88
2018-09-21T11:46:40.531Z,82.07
2018-09-21T11:49:08.213Z,82.60
2018-09-21T11:51:36.031Z,82.97
2018-09-21T11:54:03.603Z,82.62
2018-09-21T11:56:31.244Z,82.96
2018-09-21T11:58:58.985Z,82.60
2018-09-21T12:01:26.762Z,82.02
2018-09-21T12:03:54.504Z,81.31
2018-09-21T12:06:22.494Z,81.78
2018-09-21T12:08:50.680Z,81.80
2018-09-21T12:11:18.268Z,82.17
2018-09-21T12:13:45.844Z,81.48
2018-09-21T12:16:13.659Z,81.22
2018-09-21T12:18:41.277Z,81.87
2018-09-21T12:21:08.819Z,80.67
2018-09-21T12:23:36.841Z,81.77
2018-09-21T12:26:04.429Z,81.11
2018-09-21T12:28:32.187Z,81.34
2018-09-21T12:30:59.874Z,81.45
2018-09-21T12:33:28.446Z,81.03
2018-09-21T12:35:56.025Z,81.21
2018-09-21T12:38:23.539Z,80.99
2018-09-21T12:40:51.275Z,80.33
2018-09-21T12:43:18.807Z,81.25
2018-09-21T12:45:46.406Z,79.43
2018-09-21T12:48:13.926Z,79.25
2018-09-21T12:50:41.586Z,79.03
2018-09-21T12:53:09.083Z,78.18
2018-09-21T12:55:36.589Z,78.30
2018-09-21T12:58:04.269Z,77.67
2018-09-21T13:00:31.755Z,76.96
2018-09-21T13:02:59.300Z,77.76
2018-09-21T13:05:26.908Z,76.97
2018-09-21T13:07:54.446Z,76.42
2018-09-21T13:10:22.026Z,77.29
2018-09-21T13:12:49.841Z,75.93
2018-09-21T13:15:17.579Z,75.50
2018-09-21T13:17:45.131Z,75.09
2018-09-21T13:20:12.733Z,74.55
2018-09-21T13:22:40.339Z,73.21
2018-09-21T13:25:07.910Z,73.11
2018-09-21T13:27:35.465Z,71.06
2018-09-21T13:30:03.247Z,70.08
2018-09-21T13:32:30.974Z,67.91
2018-09-21T13:34:58.557Z,67.60
2018-09-21T13:37:26.205Z,67.05
2018-09-21T13:39:54.044Z,67.54
2018-09-21T13:42:21.605Z,68.10
2018-09-21T13:44:49.126Z,66.48
2018-09-21T13:47:16.709Z,63.88
2018-09-21T13:49:44.363Z,64.41
2018-09-21T13:52:11.934Z,61.67
2018-09-21T13:54:39.515Z,60.72
2018-09-21T13:57:07.082Z,61.79
2018-09-21T13:59:34.657Z,59.23
2018-09-21T14:02:02.173Z,62.18
2018-09-21T14:04:29.746Z,59.07
2018-09-21T14:06:57.340Z,58.22
2018-09-21T14:09:25.015Z,58.98
2018-09-21T14:11:52.539Z,57.17
2018-09-21T14:14:20.129Z,55.74
2018-09-21T14:16:47.660Z,54.82
2018-09-21T14:19:15.217Z,54.46
2018-09-21T14:21:42.738Z,55.78
2018-09-21T14:24:10.442Z,54.92
2018-09-21T14:26:38.108Z,54.84
2018-09-21T14:29:05.736Z,52.12
2018-09-21T14:31:33.301Z,51.54
2018-09-21T14:34:00.823Z,52.79
2018-09-21T14:36:28.913Z,51.67
2018-09-21T14:38:56.832Z,52.26
2018-09-21T14:41:26.954Z,52.72
2018-09-21T14:44:01.392Z,52.21
2018-09-21T14:46:29.568Z,53.07
2018-09-21T14:48:59.926Z,52.41
2018-09-21T14:51:29.649Z,53.86
2018-09-21T14:53:57.895Z,54.77
2018-09-21T14:56:25.988Z,55.19
2018-09-21T14:58:57.146Z,55.10
2018-09-21T15:01:25.008Z,55.07
2018-09-21T15:03:52.905Z,55.33
2018-09-21T15:06:20.804Z,55.30
2018-09-21T15:08:48.754Z,55.78
2018-09-21T15:11:16.597Z,55.95
2018-09-21T15:13:46.481Z,55.64
2018-09-21T15:16:15.207Z,57.59
2018-09-21T15:18:44.657Z,57.16
2018-09-21T15:21:13.569Z,56.73
2018-09-21T15:23:43.657Z,57.42
2018-09-21T15:26:12.628Z,57.46
2018-09-21T15:28:42.031Z,57.37
2018-09-21T15:31:10.197Z,56.56
2018-09-21T15:33:38.849Z,56.67
2018-09-21T15:36:06.916Z,56.62
2018-09-21T15:38:34.737Z,56.80
2018-09-21T15:41:03.602Z,57.06
2018-09-21T15:43:31.582Z,56.45
2018-09-21T15:46:00.496Z,55.99
2018-09-21T15:48:28.430Z,55.78
2018-09-21T15:50:56.404Z,54.93
2018-09-21T15:53:24.848Z,54.22
2018-09-21T15:55:53.885Z,53.88
2018-09-21T15:58:25.145Z,54.06
2018-09-21T16:00:53.136Z,53.92
2018-09-21T16:03:21.601Z,53.57
2018-09-21T16:05:50.686Z,53.55
2018-09-21T16:08:19.022Z,53.22
2018-09-21T16:10:47.141Z,53.92
2018-09-21T16:13:22.058Z,53.16
2018-09-21T16:15:49.951Z,52.81
2018-09-21T16:18:18.734Z,53.05
2018-09-21T16:20:47.811Z,52.76
2018-09-21T16:23:16.644Z,52.85
2018-09-21T16:25:47.738Z,51.95
2018-09-21T16:28:15.543Z,52.12
2018-09-21T16:30:43.320Z,51.36
2018-09-21T16:33:11.839Z,50.84
2018-09-21T16:35:40.232Z,50.95
2018-09-21T16:38:07.993Z,49.79
2018-09-21T16:40:35.896Z,48.96
2018-09-21T16:43:03.823Z,47.64
2018-09-21T16:45:31.666Z,46.51
2018-09-21T16:48:00.423Z,46.46
2018-09-21T16:50:30.589Z,47.26
2018-09-21T16:53:00.743Z,47.41
2018-09-21T16:55:29.530Z,47.10
2018-09-21T16:58:01.663Z,46.46
2018-09-21T17:00:30.114Z,46.90
2018-09-21T17:02:59.285Z,47.53
2018-09-21T17:05:27.563Z,47.34
2018-09-21T17:07:55.739Z,47.32
2018-09-21T17:10:25.058Z,47.37
2018-09-21T17:12:54.119Z,47.50
2018-09-21T17:15:22.383Z,47.83
2018-09-21T17:17:51.922Z,47.49
2018-09-21T17:20:19.654Z,48.41
2018-09-21T17:22:47.689Z,48.60
2018-09-21T17:25:16.446Z,48.14
2018-09-21T17:27:45.044Z,48.56
2018-09-21T17:30:13.940Z,48.14
2018-09-21T17:32:43.763Z,48.48
2018-09-21T17:35:11.633Z,48.99
2018-09-21T17:37:39.703Z,48.91
2018-09-21T17:40:07.735Z,48.46
2018-09-21T17:42:36.541Z,49.28
2018-09-21T17:45:06.386Z,48.64
2018-09-21T17:47:35.435Z,48.79
2018-09-21T17:50:03.748Z,48.72
2018-09-21T17:52:32.674Z,48.69
2018-09-21T17:55:01.915Z,48.36
2018-09-21T17:57:31.284Z,48.69
2018-09-21T17:59:59.468Z,48.81
2018-09-21T18:02:28.270Z,49.06
2018-09-21T18:04:58.411Z,49.09
2018-09-21T18:07:27.941Z,49.44
2018-09-21T18:09:56.567Z,49.20
2018-09-21T18:12:25.183Z,49.54
2018-09-21T18:14:53.039Z,49.89
2018-09-21T18:17:20.897Z,49.66
2018-09-21T18:19:49.405Z,49.63
2018-09-21T18:22:17.249Z,49.81
2018-09-21T18:24:45.090Z,49.83
2018-09-21T18:27:12.863Z,50.48
2018-09-21T18:29:40.831Z,50.32
2018-09-21T18:32:08.650Z,49.86
2018-09-21T18:34:36.531Z,50.70
2018-09-21T18:37:04.306Z,50.22
2018-09-21T18:39:31.993Z,50.44
2018-09-21T18:41:59.867Z,50.48
2018-09-21T18:44:27.596Z,50.88
2018-09-21T18:46:55.795Z,51.98
2018-09-21T18:49:23.498Z,52.95
2018-09-21T18:51:51.360Z,53.56
2018-09-21T18:54:19.147Z,55.25
2018-09-21T18:56:46.914Z,55.27
2018-09-21T18:59:14.827Z,55.14
2018-09-21T19:01:42.525Z,54.95
2018-09-21T19:04:10.328Z,54.64
2018-09-21T19:06:38.338Z,54.69
2018-09-21T19:09:06.449Z,54.50
2018-09-21T19:11:34.392Z,54.66
2018-09-21T19:14:02.093Z,54.92
2018-09-21T19:16:30.308Z,54.92
2018-09-21T19:18:58.626Z,54.70
2018-09-21T19:21:26.496Z,54.79
2018-09-21T19:23:54.375Z,54.87
2018-09-21T19:26:22.092Z,55.04
2018-09-21T19:28:49.826Z,55.00
2018-09-21T19:31:17.417Z,55.37
2018-09-21T19:33:44.955Z,55.22
2018-09-21T19:36:12.593Z,55.43
2018-09-21T19:38:40.241Z,55.64
2018-09-21T19:41:09.260Z,55.85
2018-09-21T19:43:38.102Z,56.12
2018-09-21T19:46:05.853Z,56.02
2018-09-21T19:48:33.589Z,56.47
2018-09-21T19:51:01.175Z,56.38
2018-09-21T19:53:29.665Z,56.37
2018-09-21T19:55:57.439Z,56.60
2018-09-21T19:58:25.167Z,56.29
2018-09-21T20:00:52.934Z,56.31
2018-09-21T20:03:20.688Z,56.71
2018-09-21T20:05:48.590Z,56.33
2018-09-21T20:08:16.165Z,56.10
2018-09-21T20:10:43.798Z,56.34
2018-09-21T20:13:11.408Z,56.17
2018-09-21T20:15:39.207Z,56.02
2018-09-21T20:18:07.163Z,56.04
2018-09-21T20:20:34.784Z,56.41
2018-09-21T20:23:02.386Z,55.80
2018-09-21T20:25:29.973Z,56.25
2018-09-21T20:27:57.725Z,56.00
2018-09-21T20:30:25.601Z,56.06
2018-09-21T20:33:11.444Z,55.49
2018-09-21T20:35:39.209Z,55.77
2018-09-21T20:38:07.813Z,55.96
2018-09-21T20:40:35.560Z,55.99
2018-09-21T20:43:03.677Z,55.53
2018-09-21T20:45:31.760Z,55.45
2018-09-21T20:48:00.451Z,55.86
2018-09-21T20:50:28.371Z,55.85
2018-09-21T20:52:55.978Z,55.91
2018-09-21T20:55:23.647Z,55.97
2018-09-21T20:57:51.229Z,56.01
2018-09-21T21:00:18.902Z,56.19
2018-09-21T21:02:46.537Z,56.40
2018-09-21T21:05:14.949Z,56.93
2018-09-21T21:07:42.723Z,56.51
2018-09-21T21:10:10.412Z,56.84
2018-09-21T21:12:38.406Z,56.91
2018-09-21T21:15:06.510Z,57.12
2018-09-21T21:17:34.340Z,57.81
2018-09-21T21:20:02.129Z,57.61
2018-09-21T21:22:29.805Z,57.48
2018-09-21T21:24:57.664Z,58.23
2018-09-21T21:27:25.339Z,58.33
2018-09-21T21:29:53.085Z,58.64
2018-09-21T21:32:21.078Z,58.88
2018-09-21T21:34:48.703Z,59.64
2018-09-21T21:37:16.552Z,59.70
2018-09-21T21:39:44.213Z,59.36
2018-09-21T21:42:11.904Z,59.72
2018-09-21T21:44:39.806Z,60.16
2018-09-21T21:47:07.405Z,60.16
2018-09-21T21:49:35.227Z,60.35
2018-09-21T21:52:03.081Z,60.67
2018-09-21T21:54:31.578Z,60.66
2018-09-21T21:56:59.216Z,61.09
2018-09-21T21:59:26.849Z,61.58
2018-09-21T22:01:54.494Z,61.35
2018-09-21T22:04:22.242Z,61.59
2018-09-21T22:06:49.978Z,61.49
2018-09-21T22:09:17.925Z,61.58
2018-09-21T22:11:45.666Z,62.61
2018-09-21T22:14:13.729Z,62.70
2018-09-21T22:16:41.457Z,62.63
2018-09-21T22:19:09.137Z,63.25
2018-09-21T22:21:37.865Z,62.90
2018-09-21T22:24:05.675Z,63.06
2018-09-21T22:26:33.425Z,63.71
2018-09-21T22:29:00.993Z,64.07
2018-09-21T22:31:28.569Z,64.23
2018-09-21T22:33:56.936Z,64.10
2018-09-21T22:36:24.491Z,64.19
2018-09-21T22:38:52.176Z,64.04
2018-09-21T22:41:19.821Z,65.06
2018-09-21T22:43:47.406Z,64.53
2018-09-21T22:46:15.210Z,65.14
2018-09-21T22:48:42.851Z,64.59
2018-09-21T22:51:10.657Z,64.68
2018-09-21T22:53:38.429Z,64.82
2018-09-21T22:56:06.208Z,64.92
2018-09-21T22:58:34.115Z,65.43
2018-09-21T23:01:02.194Z,65.65
2018-09-21T23:03:29.738Z,64.88
2018-09-21T23:05:57.533Z,65.33
2018-09-21T23:08:25.314Z,65.04
2018-09-21T23:10:53.060Z,64.92
2018-09-21T23:13:20.763Z,64.70
2018-09-21T23:15:48.412Z,65.31
2018-09-21T23:18:16.008Z,65.19
2018-09-21T23:20:43.857Z,65.06
2018-09-21T23:23:11.528Z,64.95
2018-09-21T23:25:39.339Z,65.15
2018-09-21T23:28:06.967Z,65.39
2018-09-21T23:30:34.549Z,65.71
2018-09-21T23:35:35.988Z,66.12
2018-09-21T23:38:03.531Z,65.85
2018-09-21T23:40:31.113Z,66.19
2018-09-21T23:42:58.688Z,65.84
2018-09-21T23:45:26.288Z,66.34
2018-09-21T23:47:53.810Z,66.53
2018-09-21T23:50:21.437Z,66.76
2018-09-21T23:52:48.993Z,67.46
2018-09-21T23:55:16.516Z,66.98
2018-09-21T23:57:44.217Z,66.85
